createdAt,value
2019-02-21T00:10:00.488Z,25.97
2019-02-21T00:20:03.139Z,20.97
2019-02-21T00:30:07.157Z,19.47
2019-02-21T00:40:08.704Z,30.57
2019-02-21T00:50:10.174Z,27.13
2019-02-21T01:00:13.048Z,27.73
2019-02-21T01:10:15.341Z,22.13
2019-02-21T01:20:16.820Z,21.67
2019-02-21T01:30:18.268Z,24.53
2019-02-21T01:40:19.644Z,21.80
2019-02-21T01:50:21.053Z,22.23
2019-02-21T02:00:22.585Z,17.07
2019-02-21T02:10:25.595Z,18.87
2019-02-21T02:20:27.312Z,21.20
2019-02-21T02:30:28.774Z,23.97
2019-02-21T02:40:30.234Z,16.07
2019-02-21T02:50:31.657Z,20.77
2019-02-21T03:00:33.186Z,17.83
2019-02-21T03:10:35.623Z,18.90
2019-02-21T03:20:37.438Z,23.07
2019-02-21T03:30:38.906Z,18.07
2019-02-21T03:40:40.391Z,24.30
2019-02-21T03:50:41.731Z,21.80
2019-02-21T04:00:43.269Z,19.87
2019-02-21T04:10:45.728Z,21.37
2019-02-21T04:20:47.440Z,20.83
2019-02-21T04:30:48.898Z,18.40
2019-02-21T04:40:50.358Z,20.63
2019-02-21T04:50:54.378Z,21.20
2019-02-21T05:00:56.112Z,21.63
2019-02-21T05:10:58.596Z,25.63
2019-02-21T05:21:00.058Z,21.13
2019-02-21T05:31:03.353Z,24.00
2019-02-21T05:41:06.724Z,24.67
2019-02-21T05:51:10.058Z,33.53
2019-02-21T06:01:16.309Z,55.50
2019-02-21T06:11:29.590Z,34.73
2019-02-21T06:21:38.582Z,27.23
2019-02-21T06:31:40.031Z,26.70
2019-02-21T06:41:42.800Z,30.30
2019-02-21T06:51:44.415Z,23.40
2019-02-21T07:01:45.956Z,25.07
2019-02-21T07:11:48.405Z,25.10
2019-02-21T07:21:49.789Z,30.10
2019-02-21T07:31:51.168Z,25.57
2019-02-21T07:41:52.562Z,25.63
2019-02-21T07:51:53.979Z,25.47
2019-02-21T08:01:55.517Z,28.10
2019-02-21T08:11:58.047Z,26.37
2019-02-21T08:22:00.319Z,23.50
2019-02-21T08:32:01.906Z,19.62
2019-02-21T08:42:03.381Z,19.20
2019-02-21T08:52:04.808Z,17.67
2019-02-21T09:02:06.729Z,22.33
2019-02-21T09:12:09.182Z,20.30
2019-02-21T09:22:10.899Z,20.40
2019-02-21T09:32:12.361Z,21.62
2019-02-21T09:42:14.932Z,20.15
2019-02-21T09:52:16.356Z,19.45
2019-02-21T10:02:17.885Z,21.75
2019-02-21T10:12:20.278Z,21.30
2019-02-21T10:22:21.681Z,21.17
2019-02-21T10:32:23.165Z,25.30
2019-02-21T10:42:24.551Z,22.93
2019-02-21T10:52:25.970Z,28.63
2019-02-21T11:02:27.513Z,24.03
2019-02-21T11:12:29.902Z,27.30
2019-02-21T11:22:31.300Z,31.80
2019-02-21T11:32:32.780Z,20.47
2019-02-21T11:42:34.173Z,34.30
2019-02-21T11:52:35.583Z,26.47
2019-02-21T12:02:39.034Z,31.63
2019-02-21T12:12:41.375Z,26.23
2019-02-21T12:22:42.849Z,24.47
2019-02-21T12:32:44.247Z,25.83
2019-02-21T12:42:45.771Z,23.93
2019-02-21T12:52:47.192Z,27.90
2019-02-21T13:02:51.734Z,23.67
2019-02-21T13:12:54.121Z,20.77
2019-02-21T13:22:55.962Z,33.43
2019-02-21T13:32:57.448Z,27.27
2019-02-21T13:42:58.909Z,30.47
2019-02-21T13:53:00.659Z,26.80
2019-02-21T14:03:02.165Z,21.20
2019-02-21T14:13:04.776Z,28.73
2019-02-21T14:23:07.613Z,24.37
2019-02-21T14:33:09.048Z,26.83
2019-02-21T14:43:13.615Z,30.07
2019-02-21T14:53:13.713Z,66.67
2019-02-21T15:03:22.034Z,38.77
2019-02-21T15:13:19.460Z,35.43
2019-02-21T15:23:20.963Z,36.47
2019-02-21T15:33:22.509Z,40.23
2019-02-21T15:43:23.980Z,47.23
2019-02-21T15:53:25.424Z,93.70
2019-02-21T16:03:27.004Z,122.10
2019-02-21T16:13:29.469Z,70.87
2019-02-21T16:23:30.869Z,50.47
2019-02-21T16:33:32.353Z,67.17
2019-02-21T16:43:33.747Z,64.50
2019-02-21T16:53:35.202Z,58.03
2019-02-21T17:03:37.034Z,46.23
2019-02-21T17:13:39.441Z,51.67
2019-02-21T17:23:40.848Z,52.93
2019-02-21T17:33:42.394Z,43.17
2019-02-21T17:43:43.783Z,45.90
2019-02-21T17:53:45.273Z,54.83
2019-02-21T18:03:46.846Z,51.33
2019-02-21T18:13:49.257Z,43.77
2019-02-21T18:23:50.748Z,50.70
2019-02-21T18:33:52.304Z,330.00
2019-02-21T18:43:53.832Z,422.30
2019-02-21T18:53:55.293Z,108.67
2019-02-21T19:03:56.973Z,50.13
2019-02-21T19:13:59.509Z,44.93
2019-02-21T19:24:01.000Z,50.67
2019-02-21T19:34:02.533Z,41.37
2019-02-21T19:44:08.844Z,51.50
2019-02-21T19:54:07.249Z,61.03
2019-02-21T20:04:08.790Z,58.67
2019-02-21T20:14:11.248Z,55.93
2019-02-21T20:24:12.640Z,58.13
2019-02-21T20:34:14.100Z,51.47
2019-02-21T20:44:16.775Z,36.83
2019-02-21T20:54:18.200Z,37.33
2019-02-21T21:04:19.825Z,39.20
2019-02-21T21:14:22.228Z,41.00
2019-02-21T21:24:23.621Z,28.97
2019-02-21T21:34:26.712Z,23.73
2019-02-21T21:44:28.265Z,25.37
2019-02-21T21:54:29.696Z,22.27
2019-02-21T22:04:31.244Z,27.40
2019-02-21T22:14:33.694Z,60.17
2019-02-21T22:24:35.185Z,31.27
2019-02-21T22:34:36.681Z,30.03
2019-02-21T22:44:38.272Z,40.60
2019-02-21T22:54:39.693Z,35.30
2019-02-21T23:04:45.030Z,33.13
2019-02-21T23:14:47.520Z,38.30
2019-02-21T23:24:48.913Z,37.87
2019-02-21T23:34:51.283Z,38.27
2019-02-21T23:44:52.801Z,37.63
2019-02-21T23:54:57.681Z,42.33
